Time;durP1;ratioP1;P1;durP2;ratioP2;P2;SDS_P1;SDS_P2;PMS_P1;PMS_P2;Temp;Humidity;BMP_temperature;BMP_pressure;BME280_temperature;BME280_humidity;BME280_pressure;Samples;Min_cycle;Max_cycle;Signal;HPM_P1;HPM_P2
2022/03/30 00:00:12;;;;;;;;;;;;;;;13.64;47.35;99613.59;6108656;23;7157;-74
2022/03/30 00:02:38;;;;;;;;;;;;;;;13.62;47.38;99610.13;6133838;23;6969;-74
2022/03/30 00:05:04;;;;;;;;;;;;;;;13.61;47.52;99606.66;6113218;23;6774;-74
2022/03/30 00:07:32;;;;;;;;;;;;;;;13.61;47.60;99610.94;6110029;23;6782;-74
2022/03/30 00:10:04;;;;;;;;;;;;;;;13.58;47.19;99604.03;6086919;23;6779;-74
2022/03/30 00:12:30;;;;;;;;;;;;;;;13.56;47.71;99600.53;6111990;23;6850;-74
2022/03/30 00:14:57;;;;;;;;;;;;;;;13.57;47.00;99601.41;6108858;23;6947;-74
2022/03/30 00:17:22;;;;;;;;;;;;;;;13.55;46.66;99597.94;6110176;23;7112;-74
2022/03/30 00:19:48;;;;;;;;;;;;;;;13.54;46.75;99597.06;6111963;23;6766;-74
2022/03/30 00:22:14;;;;;;;;;;;;;;;13.53;47.10;99597.03;6085403;23;7003;-74
2022/03/30 00:24:43;;;;;;;;;;;;;;;13.53;46.57;99597.88;6113345;23;6983;-74
2022/03/30 00:27:10;;;;;;;;;;;;;;;13.53;46.86;99597.03;6113893;23;6967;-74
2022/03/30 00:29:36;;;;;;;;;;;;;;;13.52;47.13;99587.53;6111323;23;6779;-74
2022/03/30 00:32:04;;;;;;;;;;;;;;;13.53;47.29;99594.47;6107653;23;6815;-74
2022/03/30 00:34:30;;;;;;;;;;;;;;;13.52;46.59;99587.53;6086819;23;6995;-74
2022/03/30 00:36:55;;;;;;;;;;;;;;;13.50;47.02;99590.09;6109787;23;6767;-74
2022/03/30 00:39:21;;;;;;;;;;;;;;;13.49;46.31;99584.91;6112998;23;7114;-74
2022/03/30 00:41:47;;;;;;;;;;;;;;;13.47;46.31;99584.88;6109961;23;6937;-73
2022/03/30 00:44:14;;;;;;;;;;;;;;;13.46;47.01;99583.13;6110705;23;6762;-73
2022/03/30 00:46:43;;;;;;;;;;;;;;;13.43;46.95;99575.31;6111341;23;6830;-73
2022/03/30 00:49:09;;;;;;;;;;;;;;;13.42;45.78;99579.63;6110831;23;6790;-73
2022/03/30 00:51:35;;;;;;;;;;;;;;;13.40;46.20;99576.09;6086160;23;6806;-73
2022/03/30 00:54:02;;;;;;;;;;;;;;;13.38;46.10;99577.78;6110308;23;6963;-73
2022/03/30 00:56:33;;;;;;;;;;;;;;;13.36;45.57;99573.44;6111790;23;6956;-73
2022/03/30 00:59:03;;;;;;;;;;;;;;;13.33;46.19;99569.94;6110839;23;6795;-73
2022/03/30 01:01:29;;;;;;;;;;;;;;;13.32;45.83;99560.50;6108652;23;6921;-73
2022/03/30 01:03:54;;;;;;;;;;;;;;;13.32;46.02;99564.75;6084906;23;6994;-73
2022/03/30 01:06:20;;;;;;;;;;;;;;;13.31;46.05;99561.34;6109100;23;6874;-74
2022/03/30 01:08:48;;;;;;;;;;;;;;;13.30;46.14;99558.72;6113975;23;6790;-74
2022/03/30 01:11:16;;;;;;;;;;;;;;;13.28;45.96;99558.69;6087267;23;6803;-74
2022/03/30 01:13:42;;;;;;;;;;;;;;;13.28;45.48;99556.13;6110369;23;6795;-73
2022/03/30 01:16:08;;;;;;;;;;;;;;;13.25;45.30;99555.19;6112189;23;6817;-73
2022/03/30 01:18:38;;;;;;;;;;;;;;;13.23;45.51;99547.41;6113267;23;7058;-73
2022/03/30 01:21:05;;;;;;;;;;;;;;;13.19;45.30;99545.63;6112140;23;7262;-73
2022/03/30 01:23:31;;;;;;;;;;;;;;;13.16;46.29;99546.41;6114854;23;6997;-74
2022/03/30 01:25:56;;;;;;;;;;;;;;;13.11;46.09;99542.84;6113907;23;6982;-74
2022/03/30 01:28:27;;;;;;;;;;;;;;;13.06;46.27;99537.59;6112163;23;6770;-74
2022/03/30 01:33:44;;;;;;;;;;;;;;;12.90;46.83;99536.34;6113313;23;7912;-74
2022/03/30 01:36:10;;;;;;;;;;;;;;;12.82;46.08;99532.72;6112137;23;6858;-74
2022/03/30 01:38:37;;;;;;;;;;;;;;;12.74;47.21;99531.66;6112254;23;6941;-74
2022/03/30 01:41:03;;;;;;;;;;;;;;;12.67;46.81;99527.19;6111675;23;6982;-74
2022/03/30 01:43:28;;;;;;;;;;;;;;;12.60;47.50;99521.91;6089699;23;7055;-74
2022/03/30 01:45:55;;;;;;;;;;;;;;;12.54;47.47;99524.28;6114096;23;6779;-74
2022/03/30 01:48:21;;;;;;;;;;;;;;;12.50;47.83;99522.50;6087818;23;6971;-73
2022/03/30 01:50:47;;;;;;;;;;;;;;;12.45;48.42;99517.22;6112231;23;6803;-73
2022/03/30 01:53:14;;;;;;;;;;;;;;;12.41;48.06;99518.00;6111703;23;7033;-73
2022/03/30 01:55:40;;;;;;;;;;;;;;;12.39;47.77;99516.19;6136905;23;6788;-73
2022/03/30 01:58:06;;;;;;;;;;;;;;;12.35;48.30;99516.09;6112460;23;7142;-74
2022/03/30 02:00:32;;;;;;;;;;;;;;;12.35;48.44;99516.09;6115352;23;6774;-74
2022/03/30 02:02:58;;;;;;;;;;;;;;;12.34;48.13;99511.78;6116534;23;6870;-73
2022/03/30 02:05:24;;;;;;;;;;;;;;;12.33;48.08;99510.06;6116245;23;6873;-73
2022/03/30 02:07:51;;;;;;;;;;;;;;;12.33;47.83;99512.63;6117402;23;6791;-74
2022/03/30 02:10:17;;;;;;;;;;;;;;;12.32;48.30;99513.47;6116588;23;7062;-73
2022/03/30 02:12:43;;;;;;;;;;;;;;;12.33;48.22;99512.63;6067385;23;8402;-73
2022/03/30 02:15:10;;;;;;;;;;;;;;;12.32;48.07;99510.88;6117922;23;7029;-73
2022/03/30 02:17:38;;;;;;;;;;;;;;;12.32;47.92;99503.19;6091522;23;6779;-75
2022/03/30 02:20:05;;;;;;;;;;;;;;;12.33;47.77;99510.06;6116168;23;7034;-75
2022/03/30 02:22:31;;;;;;;;;;;;;;;12.33;48.30;99507.50;6118215;23;6989;-75
2022/03/30 02:24:57;;;;;;;;;;;;;;;12.34;47.96;99501.50;6118222;23;7345;-76
2022/03/30 02:27:23;;;;;;;;;;;;;;;12.35;48.38;99494.69;6117261;23;7013;-76
2022/03/30 02:29:56;;;;;;;;;;;;;;;12.33;48.07;99489.50;6117146;23;6783;-76
2022/03/30 02:32:22;;;;;;;;;;;;;;;12.34;48.30;99483.53;6117682;23;6940;-76
2022/03/30 02:34:49;;;;;;;;;;;;;;;12.33;48.26;99486.94;6117262;23;6794;-76
2022/03/30 02:37:14;;;;;;;;;;;;;;;12.33;48.29;99480.94;6117894;23;6937;-76
2022/03/30 02:39:41;;;;;;;;;;;;;;;12.32;48.52;99480.06;6117658;23;6770;-75
2022/03/30 02:42:07;;;;;;;;;;;;;;;12.30;47.83;99473.13;6141559;23;6786;-75
2022/03/30 02:44:34;;;;;;;;;;;;;;;12.28;47.73;99470.53;6091734;23;7064;-76
2022/03/30 02:47:03;;;;;;;;;;;;;;;12.28;47.78;99467.09;6116501;23;6985;-77
2022/03/30 02:49:29;;;;;;;;;;;;;;;12.27;48.02;99470.50;6117329;23;6787;-77
2022/03/30 02:51:54;;;;;;;;;;;;;;;12.25;48.37;99467.88;6117314;23;6827;-77
2022/03/30 02:54:21;;;;;;;;;;;;;;;12.22;47.73;99465.22;6118180;23;7821;-77
2022/03/30 02:56:47;;;;;;;;;;;;;;;12.19;48.16;99460.88;6092435;23;6982;-77
2022/03/30 02:59:14;;;;;;;;;;;;;;;12.17;48.43;99459.13;6113708;23;6791;-77
2022/03/30 03:01:40;;;;;;;;;;;;;;;12.15;47.94;99464.22;6110377;23;6778;-78
2022/03/30 03:04:06;;;;;;;;;;;;;;;12.16;47.77;99454.78;6085174;23;6778;-78
2022/03/30 03:06:32;;;;;;;;;;;;;;;12.17;48.03;99461.69;6111202;23;6854;-78
2022/03/30 03:08:58;;;;;;;;;;;;;;;12.18;48.25;99460.84;6110136;23;7030;-78
2022/03/30 03:11:25;;;;;;;;;;;;;;;12.17;48.42;99462.53;6084262;23;6874;-78
2022/03/30 03:13:53;;;;;;;;;;;;;;;12.16;48.27;99457.34;6108427;23;6782;-78
2022/03/30 03:16:19;;;;;;;;;;;;;;;12.15;48.39;99460.75;6108322;23;6877;-78
2022/03/30 03:18:45;;;;;;;;;;;;;;;12.14;48.25;99459.03;6108490;23;6771;-78
2022/03/30 03:21:11;;;;;;;;;;;;;;;12.11;47.70;99453.81;6108483;23;6850;-78
2022/03/30 03:23:37;;;;;;;;;;;;;;;12.11;48.09;99458.94;6113651;23;7282;-78
2022/03/30 03:26:03;;;;;;;;;;;;;;;12.10;47.79;99457.22;6112661;23;6920;-78
2022/03/30 03:28:30;;;;;;;;;;;;;;;12.08;47.89;99455.47;6082196;23;8115;-78
2022/03/30 03:30:56;;;;;;;;;;;;;;;12.06;47.57;99449.41;6058382;23;7057;-77
2022/03/30 03:33:22;;;;;;;;;;;;;;;12.06;48.13;99451.97;6113752;23;6977;-77
2022/03/30 03:35:48;;;;;;;;;;;;;;;12.04;47.81;99445.06;6113482;23;7796;-78
2022/03/30 03:38:14;;;;;;;;;;;;;;;12.04;48.19;99452.78;6111961;23;6779;-77
2022/03/30 03:40:40;;;;;;;;;;;;;;;12.03;47.90;99451.91;6113951;23;6774;-77
2022/03/30 03:43:06;;;;;;;;;;;;;;;12.00;48.08;99451.78;6111674;23;6770;-77
2022/03/30 03:45:33;;;;;;;;;;;;;;;12.00;47.75;99451.78;6088554;23;6993;-77
2022/03/30 03:47:59;;;;;;;;;;;;;;;12.01;47.83;99452.66;6087083;23;7211;-77
2022/03/30 03:50:26;;;;;;;;;;;;;;;12.01;47.76;99450.97;6111019;23;7191;-78
2022/03/30 03:52:52;;;;;;;;;;;;;;;12.00;47.70;99446.66;6112436;23;8198;-78
2022/03/30 03:55:18;;;;;;;;;;;;;;;11.99;47.82;99444.91;6112706;23;6763;-76
2022/03/30 04:01:25;;;;;;;;;;;;;;;11.92;48.18;99453.28;6112154;23;6946;-77
2022/03/30 04:03:50;;;;;;;;;;;;;;;11.90;47.91;99449.81;6083514;23;6779;-77
2022/03/30 04:06:16;;;;;;;;;;;;;;;11.89;48.41;99448.06;6132537;23;6889;-77
2022/03/30 04:08:42;;;;;;;;;;;;;;;11.86;48.61;99443.72;6108620;23;6854;-77
2022/03/30 04:11:07;;;;;;;;;;;;;;;11.84;48.29;99444.50;6112600;23;6830;-77
2022/03/30 04:13:33;;;;;;;;;;;;;;;11.81;48.14;99443.59;6112904;23;6778;-77
2022/03/30 04:15:59;;;;;;;;;;;;;;;11.79;49.21;99445.25;6109523;23;6766;-77
2022/03/30 04:18:24;;;;;;;;;;;;;;;11.79;49.01;99441.81;6134970;23;6990;-77
2022/03/30 04:20:50;;;;;;;;;;;;;;;11.79;48.95;99436.66;6109959;23;6794;-77
2022/03/30 04:23:16;;;;;;;;;;;;;;;11.77;48.61;99434.03;6114121;23;6841;-77
2022/03/30 04:25:41;;;;;;;;;;;;;;;11.74;48.44;99438.25;6113049;23;6775;-76
2022/03/30 04:28:07;;;;;;;;;;;;;;;11.71;48.58;99436.47;6113399;23;6981;-77
2022/03/30 04:30:33;;;;;;;;;;;;;;;11.68;48.68;99438.91;6112709;23;7739;-77
2022/03/30 04:32:59;;;;;;;;;;;;;;;11.64;48.90;99424.28;6111974;23;7062;-77
2022/03/30 04:35:25;;;;;;;;;;;;;;;11.61;49.06;99432.75;6112102;23;7025;-77
2022/03/30 04:37:53;;;;;;;;;;;;;;;11.58;48.83;99429.22;6113962;23;7112;-77
2022/03/30 04:40:19;;;;;;;;;;;;;;;11.55;49.07;99430.03;6113011;23;7007;-77
2022/03/30 04:42:45;;;;;;;;;;;;;;;11.51;49.15;99426.50;6110179;23;6955;-77
2022/03/30 04:45:11;;;;;;;;;;;;;;;11.47;48.97;99419.53;6113339;23;6842;-77
2022/03/30 04:47:36;;;;;;;;;;;;;;;11.45;49.32;99418.63;6111166;23;6872;-77
2022/03/30 04:50:04;;;;;;;;;;;;;;;11.43;49.15;99422.84;6112839;23;7081;-77
2022/03/30 04:52:32;;;;;;;;;;;;;;;11.38;49.11;99416.69;6112086;23;6894;-77
2022/03/30 04:54:58;;;;;;;;;;;;;;;11.34;49.32;99420.00;6111817;23;7227;-77
2022/03/30 04:57:24;;;;;;;;;;;;;;;11.30;49.19;99415.59;6132645;23;7002;-77
2022/03/30 04:59:50;;;;;;;;;;;;;;;11.24;49.04;99417.19;6086888;23;6901;-77
2022/03/30 05:02:16;;;;;;;;;;;;;;;11.17;49.58;99414.41;6109782;23;6770;-77
2022/03/30 05:04:42;;;;;;;;;;;;;;;11.11;49.75;99412.53;6112928;23;6767;-77
2022/03/30 05:07:07;;;;;;;;;;;;;;;11.03;49.59;99416.53;6112374;23;7039;-77
2022/03/30 05:09:33;;;;;;;;;;;;;;;10.94;49.77;99420.56;6112097;23;7179;-77
2022/03/30 05:11:59;;;;;;;;;;;;;;;10.87;49.81;99425.47;6088247;23;6842;-77
2022/03/30 05:14:24;;;;;;;;;;;;;;;10.77;49.50;99420.03;6135750;23;6771;-77
2022/03/30 05:16:50;;;;;;;;;;;;;;;10.68;49.53;99423.16;6134903;23;6762;-77
2022/03/30 05:19:16;;;;;;;;;;;;;;;10.60;50.20;99422.06;6088224;23;7157;-77
2022/03/30 05:21:41;;;;;;;;;;;;;;;10.56;49.79;99422.78;6112016;23;6930;-77
2022/03/30 05:24:07;;;;;;;;;;;;;;;10.50;50.79;99418.34;6111562;23;7025;-77
2022/03/30 05:26:33;;;;;;;;;;;;;;;10.46;50.35;99419.03;6112300;23;6929;-77
2022/03/30 05:28:58;;;;;;;;;;;;;;;10.42;50.51;99420.63;6112487;23;6838;-77
2022/03/30 05:31:24;;;;;;;;;;;;;;;10.39;51.03;99417.09;6111265;23;8713;-77
2022/03/30 05:33:50;;;;;;;;;;;;;;;10.37;50.89;99421.28;6113122;23;6782;-77
2022/03/30 05:36:15;;;;;;;;;;;;;;;10.33;50.91;99420.28;6088418;23;6846;-77
2022/03/30 05:38:41;;;;;;;;;;;;;;;10.31;51.53;99415.97;6114147;23;6766;-77
2022/03/30 05:41:07;;;;;;;;;;;;;;;10.31;51.64;99414.25;6114182;23;7082;-77
2022/03/30 05:43:32;;;;;;;;;;;;;;;10.31;51.15;99418.53;6114181;23;7872;-77
2022/03/30 05:45:58;;;;;;;;;;;;;;;10.31;51.25;99418.53;6110741;23;6935;-77
2022/03/30 05:48:24;;;;;;;;;;;;;;;10.31;51.27;99427.06;6110155;23;7071;-77
2022/03/30 05:50:52;;;;;;;;;;;;;;;10.32;51.91;99426.22;6087752;23;7127;-77
2022/03/30 05:53:18;;;;;;;;;;;;;;;10.32;52.02;99426.22;6111894;23;7796;-77
2022/03/30 05:55:44;;;;;;;;;;;;;;;10.34;51.18;99423.72;6108547;23;6774;-77
2022/03/30 05:58:12;;;;;;;;;;;;;;;10.36;51.57;99424.66;6112796;23;6786;-76
2022/03/30 06:00:38;;;;;;;;;;;;;;;10.36;51.78;99425.53;6113260;23;7996;-76
2022/03/30 06:03:04;;;;;;;;;;;;;;;10.38;51.85;99434.13;6112184;23;7891;-76
2022/03/30 06:05:30;;;;;;;;;;;;;;;10.38;51.52;99436.69;6113680;23;6939;-76
2022/03/30 06:07:59;;;;;;;;;;;;;;;10.39;51.67;99433.31;6089776;23;6786;-77
2022/03/30 06:10:26;;;;;;;;;;;;;;;10.37;51.26;99431.50;6115261;23;6786;-77
2022/03/30 06:12:53;;;;;;;;;;;;;;;10.37;51.76;99434.97;6113297;23;6842;-77
2022/03/30 06:15:19;;;;;;;;;;;;;;;10.36;51.68;99428.09;6112671;23;6995;-77
2022/03/30 06:17:47;;;;;;;;;;;;;;;10.34;51.56;99434.88;6089321;23;6893;-77
2022/03/30 06:20:13;;;;;;;;;;;;;;;10.34;51.41;99437.44;6114048;23;6939;-77
2022/03/30 06:22:41;;;;;;;;;;;;;;;10.32;51.88;99436.47;6089806;23;6783;-77
2022/03/30 06:25:09;;;;;;;;;;;;;;;10.31;51.59;99439.88;6112608;23;6853;-77
2022/03/30 06:27:36;;;;;;;;;;;;;;;10.28;51.68;99434.66;6113526;23;6782;-77
2022/03/30 06:30:04;;;;;;;;;;;;;;;10.27;51.96;99443.16;6089877;23;8419;-77
2022/03/30 06:32:30;;;;;;;;;;;;;;;10.27;52.40;99443.16;6112778;23;7054;-77
2022/03/30 06:34:56;;;;;;;;;;;;;;;10.28;52.13;99434.66;6113490;23;6766;-77
2022/03/30 06:37:23;;;;;;;;;;;;;;;10.31;52.02;99449.25;6115009;23;7035;-77
2022/03/30 06:39:49;;;;;;;;;;;;;;;10.35;51.95;99449.41;6136219;23;6950;-77
2022/03/30 06:42:16;;;;;;;;;;;;;;;10.42;52.37;99447.94;6113385;23;6774;-77
2022/03/30 06:44:43;;;;;;;;;;;;;;;10.53;52.22;99461.97;6136173;23;6786;-77
2022/03/30 06:47:09;;;;;;;;;;;;;;;10.64;52.60;99464.91;6111324;23;7078;-77
2022/03/30 06:49:37;;;;;;;;;;;;;;;10.72;52.21;99457.47;6109489;23;7151;-77
2022/03/30 06:52:08;;;;;;;;;;;;;;;10.78;51.82;99460.22;6113932;23;6814;-77
2022/03/30 06:54:36;;;;;;;;;;;;;;;10.82;51.72;99456.94;6114258;23;6989;-77
2022/03/30 06:57:04;;;;;;;;;;;;;;;10.88;51.36;99458.81;6113589;23;6790;-77
2022/03/30 06:59:30;;;;;;;;;;;;;;;10.93;51.62;99451.28;6083585;23;6775;-77
2022/03/30 07:01:56;;;;;;;;;;;;;;;10.99;52.07;99446.34;6086224;23;6805;-77
2022/03/30 07:04:22;;;;;;;;;;;;;;;11.06;52.21;99448.28;6110701;23;7303;-77
2022/03/30 07:12:16;;;;;;;;;;;;;;;11.30;51.53;99446.38;6115496;23;7048;-77
2022/03/30 07:14:46;;;;;;;;;;;;;;;11.37;51.56;99444.06;6112668;23;6929;-77
2022/03/30 07:17:12;;;;;;;;;;;;;;;11.45;51.24;99446.84;6111555;23;6945;-77
2022/03/30 07:19:39;;;;;;;;;;;;;;;11.53;51.25;99450.50;6113355;23;7985;-77
2022/03/30 07:22:09;;;;;;;;;;;;;;;11.63;51.43;99451.63;6112475;23;7045;-77
2022/03/30 07:24:35;;;;;;;;;;;;;;;11.68;50.66;99454.31;6113699;23;6858;-77
2022/03/30 07:27:01;;;;;;;;;;;;;;;11.75;51.01;99456.25;6138461;23;6997;-77
2022/03/30 07:29:27;;;;;;;;;;;;;;;11.81;50.54;99456.44;6115164;23;6915;-77
2022/03/30 07:31:52;;;;;;;;;;;;;;;11.90;50.55;99454.94;6113259;23;6770;-77
2022/03/30 07:34:18;;;;;;;;;;;;;;;11.98;50.41;99447.44;6113407;23;6770;-77
2022/03/30 07:36:44;;;;;;;;;;;;;;;12.06;50.50;99444.25;6088010;23;6970;-77
2022/03/30 07:39:09;;;;;;;;;;;;;;;12.17;50.51;99448.84;6088902;23;7157;-77
2022/03/30 07:41:35;;;;;;;;;;;;;;;12.23;50.21;99448.97;6112723;23;6778;-77
2022/03/30 07:44:02;;;;;;;;;;;;;;;12.28;49.61;99447.41;6113895;23;7157;-77
2022/03/30 07:46:27;;;;;;;;;;;;;;;12.31;49.83;99447.50;6113563;23;7129;-77
2022/03/30 07:48:53;;;;;;;;;;;;;;;12.34;49.84;99439.00;6113184;23;6778;-77
2022/03/30 07:51:19;;;;;;;;;;;;;;;12.36;49.90;99445.03;6113241;23;7087;-77
2022/03/30 07:53:44;;;;;;;;;;;;;;;12.40;49.81;99443.41;6112809;23;6814;-77
2022/03/30 07:56:10;;;;;;;;;;;;;;;12.43;49.43;99440.91;6113285;23;8425;-77
2022/03/30 07:58:36;;;;;;;;;;;;;;;12.50;49.08;99447.94;6065068;23;6894;-77
2022/03/30 08:01:01;;;;;;;;;;;;;;;12.55;49.22;99435.22;6137425;23;6962;-77
2022/03/30 08:03:27;;;;;;;;;;;;;;;12.58;49.11;99445.56;6112664;23;6774;-77
2022/03/30 08:05:53;;;;;;;;;;;;;;;12.62;49.61;99447.41;6112998;23;6798;-77
2022/03/30 08:08:18;;;;;;;;;;;;;;;12.68;48.93;99442.38;6110546;23;6870;-77
2022/03/30 08:10:44;;;;;;;;;;;;;;;12.79;49.38;99442.66;6109049;23;6814;-77
2022/03/30 08:13:12;;;;;;;;;;;;;;;12.92;49.70;99444.66;6109863;23;7165;-77
2022/03/30 08:15:39;;;;;;;;;;;;;;;13.06;49.17;99450.13;6111462;23;6810;-77
2022/03/30 08:18:08;;;;;;;;;;;;;;;13.18;48.53;99439.25;6112403;23;6795;-77
2022/03/30 08:23:18;;;;;;;;;;;;;;;13.27;47.96;99438.56;6111952;23;7110;-77
2022/03/30 08:25:44;;;;;;;;;;;;;;;13.24;47.17;99446.22;6109816;23;6779;-77
2022/03/30 08:28:10;;;;;;;;;;;;;;;13.19;47.35;99442.69;6113435;23;6794;-77
2022/03/30 08:30:36;;;;;;;;;;;;;;;13.15;46.72;99439.19;6087255;23;7323;-77
2022/03/30 08:33:03;;;;;;;;;;;;;;;13.18;47.43;99443.50;6109704;23;6838;-78
2022/03/30 08:35:33;;;;;;;;;;;;;;;13.22;47.53;99441.88;6110504;23;7015;-77
2022/03/30 08:37:59;;;;;;;;;;;;;;;13.24;46.77;99429.94;6111446;23;6786;-77
2022/03/30 08:40:25;;;;;;;;;;;;;;;13.28;47.45;99429.16;6112779;23;6786;-77
2022/03/30 08:42:55;;;;;;;;;;;;;;;13.32;47.16;99430.94;6111115;23;7461;-77
2022/03/30 08:45:22;;;;;;;;;;;;;;;13.41;47.01;99427.72;6113184;23;6786;-77
2022/03/30 08:47:47;;;;;;;;;;;;;;;13.49;46.36;99420.16;6112227;23;6783;-76
2022/03/30 08:50:13;;;;;;;;;;;;;;;13.59;46.48;99410.09;6111935;23;6843;-76
2022/03/30 08:52:39;;;;;;;;;;;;;;;13.72;46.18;99416.38;6111238;23;7915;-76
2022/03/30 08:55:05;;;;;;;;;;;;;;;13.82;46.70;99413.97;6113341;23;6972;-76
2022/03/30 08:57:31;;;;;;;;;;;;;;;13.96;46.62;99421.94;6136997;23;6954;-76
2022/03/30 09:00:12;;;;;;;;;;;;;;;14.11;46.30;99421.38;6111040;23;6932;-76
2022/03/30 09:02:40;;;;;;;;;;;;;;;14.26;45.65;99419.03;6132336;23;6787;-76
2022/03/30 09:05:22;;;;;;;;;;;;;;;14.39;45.54;99421.81;6112647;23;6783;-76
2022/03/30 09:07:51;;;;;;;;;;;;;;;14.44;44.47;99417.63;6112011;23;7184;-76
2022/03/30 09:10:32;;;;;;;;;;;;;;;14.46;44.32;99415.06;6111347;23;6790;-76
2022/03/30 09:12:58;;;;;;;;;;;;;;;14.45;44.33;99419.34;6087687;23;6996;-76
2022/03/30 09:15:25;;;;;;;;;;;;;;;14.48;44.27;99413.38;6137005;23;7260;-76
2022/03/30 09:17:58;;;;;;;;;;;;;;;14.51;44.74;99418.56;6111223;23;6786;-76
2022/03/30 09:20:24;;;;;;;;;;;;;;;14.55;44.50;99417.81;6114181;23;6792;-75
2022/03/30 09:22:55;;;;;;;;;;;;;;;14.67;44.37;99419.69;6110136;23;6771;-74
2022/03/30 09:25:29;;;;;;;;;;;;;;;14.79;44.10;99419.91;6086002;23;6966;-75
2022/03/30 09:27:59;;;;;;;;;;;;;;;14.88;43.61;99423.50;6137641;23;6816;-74
2022/03/30 09:30:26;;;;;;;;;;;;;;;14.94;43.53;99423.56;6112000;23;6790;-75
2022/03/30 09:32:58;;;;;;;;;;;;;;;15.00;43.61;99423.66;6113140;23;7176;-75
2022/03/30 09:35:38;;;;;;;;;;;;;;;15.05;43.92;99418.56;6112831;23;6963;-75
2022/03/30 09:38:17;;;;;;;;;;;;;;;15.09;43.41;99408.31;6136395;23;7012;-75
2022/03/30 09:41:03;;;;;;;;;;;;;;;15.19;43.11;99406.69;6112602;23;7784;-75
2022/03/30 09:43:37;;;;;;;;;;;;;;;15.30;43.10;99405.97;6113927;23;7002;-75
2022/03/30 09:46:13;;;;;;;;;;;;;;;15.40;42.91;99402.66;6111877;23;6891;-75
2022/03/30 09:48:52;;;;;;;;;;;;;;;15.49;42.60;99401.91;6113558;23;7192;-75
2022/03/30 09:51:22;;;;;;;;;;;;;;;15.56;41.93;99390.81;6112686;23;6958;-75
2022/03/30 09:53:48;;;;;;;;;;;;;;;15.62;42.24;99397.75;6113667;23;7151;-75
2022/03/30 09:56:22;;;;;;;;;;;;;;;15.66;41.42;99400.41;6114286;23;6782;-75
2022/03/30 09:58:49;;;;;;;;;;;;;;;15.68;41.46;99392.66;6113679;23;6934;-75
2022/03/30 10:01:23;;;;;;;;;;;;;;;15.67;41.80;99393.50;6089129;23;7199;-75
2022/03/30 10:03:59;;;;;;;;;;;;;;;15.68;41.67;99401.28;6115569;23;6950;-75
2022/03/30 10:06:30;;;;;;;;;;;;;;;15.73;41.92;99395.28;6113340;23;7166;-75
2022/03/30 10:08:57;;;;;;;;;;;;;;;15.79;40.52;99390.19;6114673;23;7002;-75
2022/03/30 10:11:28;;;;;;;;;;;;;;;15.87;40.65;99393.72;6114134;23;7267;-74
2022/03/30 10:13:58;;;;;;;;;;;;;;;15.98;40.45;99387.81;6112484;23;8023;-75
2022/03/30 10:16:24;;;;;;;;;;;;;;;16.05;40.53;99390.47;6111636;23;6782;-76
2022/03/30 10:18:51;;;;;;;;;;;;;;;16.21;39.77;99394.06;6114456;23;6786;-76
2022/03/30 10:21:47;;;;;;;;;;;;;;;16.76;39.78;99382.41;6113272;23;7197;-76
2022/03/30 10:24:47;;;;;;;;;;;;;;;17.53;38.75;99378.50;6113792;23;6790;-76
2022/03/30 10:27:36;;;;;;;;;;;;;;;18.34;38.52;99365.66;6115681;23;6783;-76
2022/03/30 10:30:06;;;;;;;;;;;;;;;19.16;36.90;99362.06;6115740;23;6954;-76
2022/03/30 10:32:39;;;;;;;;;;;;;;;19.76;36.10;99363.50;6114278;23;6818;-77
2022/03/30 10:35:10;;;;;;;;;;;;;;;20.14;35.02;99363.28;6091366;23;7075;-75
2022/03/30 10:37:43;;;;;;;;;;;;;;;20.62;34.70;99349.84;6115839;23;7129;-76
2022/03/30 10:40:16;;;;;;;;;;;;;;;21.25;34.32;99340.47;6111646;23;6925;-76
2022/03/30 10:42:52;;;;;;;;;;;;;;;21.74;33.75;99335.47;6113706;23;6775;-77
2022/03/30 10:45:17;;;;;;;;;;;;;;;22.14;32.41;99337.44;6116169;23;6790;-77
2022/03/30 10:48:19;;;;;;;;;;;;;;;22.47;32.53;99329.94;6115232;23;6803;-76
2022/03/30 10:50:47;;;;;;;;;;;;;;;22.67;31.32;99325.25;6113574;23;6782;-76
2022/03/30 10:53:31;;;;;;;;;;;;;;;22.51;31.25;99325.56;6113013;23;7875;-77
2022/03/30 10:56:09;;;;;;;;;;;;;;;22.41;31.57;99319.59;6109959;23;6855;-76
2022/03/30 10:59:00;;;;;;;;;;;;;;;22.30;31.63;99319.78;6111420;23;7037;-76
2022/03/30 11:01:35;;;;;;;;;;;;;;;22.36;30.90;99323.19;6087222;23;7262;-77
2022/03/30 11:04:04;;;;;;;;;;;;;;;22.45;31.12;99321.28;6111981;23;7158;-76
2022/03/30 11:06:38;;;;;;;;;;;;;;;22.42;30.47;99316.09;6109994;23;6783;-76
2022/03/30 11:09:08;;;;;;;;;;;;;;;22.43;30.83;99309.13;6111191;23;6786;-76
2022/03/30 11:11:43;;;;;;;;;;;;;;;22.71;30.61;99313.88;6113113;23;6778;-76
2022/03/30 11:14:32;;;;;;;;;;;;;;;23.07;30.55;99298.31;6113881;23;8363;-76
2022/03/30 11:17:02;;;;;;;;;;;;;;;23.26;29.75;99300.53;6111736;23;7014;-76
2022/03/30 11:19:46;;;;;;;;;;;;;;;23.27;29.98;99297.91;6115692;23;6779;-77
2022/03/30 11:22:22;;;;;;;;;;;;;;;23.32;30.14;99297.84;6113143;23;6799;-77
2022/03/30 11:25:10;;;;;;;;;;;;;;;23.53;29.94;99291.25;6112589;23;6767;-77
2022/03/30 11:27:37;;;;;;;;;;;;;;;23.69;29.33;99291.75;6087582;23;6786;-77
2022/03/30 11:30:27;;;;;;;;;;;;;;;24.16;28.88;99282.78;6087161;23;6862;-77
2022/03/30 11:32:52;;;;;;;;;;;;;;;24.63;28.25;99279.78;6060927;23;7398;-77
2022/03/30 11:35:25;;;;;;;;;;;;;;;24.77;28.71;99268.03;6113478;23;6914;-77
2022/03/30 11:38:23;;;;;;;;;;;;;;;24.57;27.77;99273.88;6113058;23;7034;-77
2022/03/30 11:41:05;;;;;;;;;;;;;;;24.16;28.03;99274.06;6113269;23;6979;-77
2022/03/30 11:45:12;;;;;;;;;;;;;;;23.62;28.59;99271.03;6089992;23;6964;-77
2022/03/30 11:46:39;;;;;;;;;;;;;;;22.68;28.97;99266.91;6116526;23;6991;-77
2022/03/30 11:49:06;;;;;;;;;;;;;;;22.08;29.47;99271.47;6111351;23;6954;-76
2022/03/30 11:51:33;;;;;;;;;;;;;;;21.65;29.84;99273.88;6111142;23;6778;-77
2022/03/30 11:54:18;;;;;;;;;;;;;;;21.39;30.26;99269.91;6136637;23;7239;-77
2022/03/30 11:56:45;;;;;;;;;;;;;;;21.47;30.35;99264.59;6110434;23;6936;-77
2022/03/30 11:59:11;;;;;;;;;;;;;;;21.84;30.34;99260.59;6087391;23;7001;-77
2022/03/30 12:01:37;;;;;;;;;;;;;;;22.15;29.96;99262.66;6112295;23;6920;-77
2022/03/30 12:04:04;;;;;;;;;;;;;;;22.40;29.70;99259.56;6090293;23;6905;-76
2022/03/30 12:06:30;;;;;;;;;;;;;;;22.45;28.71;99258.63;6112618;23;7102;-76
2022/03/30 12:08:58;;;;;;;;;;;;;;;22.30;28.64;99264.97;6089496;23;6850;-76
2022/03/30 12:11:25;;;;;;;;;;;;;;;22.28;29.20;99255.47;6109670;23;6787;-76
2022/03/30 12:13:53;;;;;;;;;;;;;;;22.63;29.13;99253.94;6112406;23;6786;-76
2022/03/30 12:16:21;;;;;;;;;;;;;;;23.02;28.80;99254.00;6112101;23;7098;-76
2022/03/30 12:18:54;;;;;;;;;;;;;;;23.43;28.30;99253.16;6111854;23;7105;-76
2022/03/30 12:21:34;;;;;;;;;;;;;;;23.74;28.26;99243.69;6113373;23;6869;-76
2022/03/30 12:24:06;;;;;;;;;;;;;;;24.04;27.80;99242.09;6112091;23;6779;-76
2022/03/30 12:26:34;;;;;;;;;;;;;;;24.23;27.19;99242.44;6087968;23;6876;-77
2022/03/30 12:29:14;;;;;;;;;;;;;;;24.42;27.39;99228.84;6088275;23;7208;-77
2022/03/30 12:32:00;;;;;;;;;;;;;;;24.50;26.80;99237.34;6111174;23;6778;-77
2022/03/30 12:34:29;;;;;;;;;;;;;;;24.54;27.01;99228.53;6111916;23;6779;-77
2022/03/30 12:37:01;;;;;;;;;;;;;;;24.24;27.48;99231.09;6136902;23;6960;-77
2022/03/30 12:39:47;;;;;;;;;;;;;;;23.57;27.85;99218.84;6112696;23;7020;-77
2022/03/30 12:42:26;;;;;;;;;;;;;;;23.05;28.32;99215.66;6110665;23;6783;-77
2022/03/30 12:45:01;;;;;;;;;;;;;;;22.70;28.16;99212.91;6112180;23;6798;-76
2022/03/30 12:47:36;;;;;;;;;;;;;;;22.64;28.64;99210.44;6110946;23;6937;-76
2022/03/30 12:50:13;;;;;;;;;;;;;;;22.69;28.12;99208.56;6112808;23;6861;-76
2022/03/30 12:52:48;;;;;;;;;;;;;;;22.78;28.48;99207.53;6112348;23;6808;-76
2022/03/30 12:55:33;;;;;;;;;;;;;;;22.89;27.97;99195.97;6110822;23;7143;-76
2022/03/30 12:58:16;;;;;;;;;;;;;;;23.16;28.49;99196.22;6111801;23;6782;-76
2022/03/30 13:00:48;;;;;;;;;;;;;;;23.40;28.37;99196.56;6109042;23;6948;-76
2022/03/30 13:03:18;;;;;;;;;;;;;;;23.15;27.38;99199.72;6108929;23;6783;-76
2022/03/30 13:06:01;;;;;;;;;;;;;;;22.79;28.01;99184.00;6112380;23;6942;-76
2022/03/30 13:08:27;;;;;;;;;;;;;;;22.70;28.00;99181.59;6113792;23;6874;-76
2022/03/30 13:10:57;;;;;;;;;;;;;;;22.92;28.26;99176.72;6110947;23;6791;-76
2022/03/30 13:13:29;;;;;;;;;;;;;;;23.04;27.65;99180.81;6116345;23;6944;-77
2022/03/30 13:16:16;;;;;;;;;;;;;;;23.08;28.02;99168.56;6115407;23;7004;-77
2022/03/30 13:18:58;;;;;;;;;;;;;;;23.00;27.75;99166.13;6114801;23;6774;-76
2022/03/30 13:21:24;;;;;;;;;;;;;;;22.54;27.88;99170.59;6113390;23;6779;-76